createdAt,value
2023-04-02T00:00:28.227Z,7.70
2023-04-02T00:03:01.176Z,7.70
2023-04-02T00:05:55.778Z,7.70
2023-04-02T00:08:30.963Z,7.60
2023-04-02T00:11:00.391Z,7.60
2023-04-02T00:13:46.593Z,7.60
2023-04-02T00:16:18.026Z,7.60
2023-04-02T00:18:50.821Z,7.60
2023-04-02T00:21:23.334Z,7.60
2023-04-02T00:23:51.824Z,7.60
2023-04-02T00:26:31.778Z,7.60
2023-04-02T00:29:03.327Z,7.50
2023-04-02T00:31:34.785Z,7.50
2023-04-02T00:34:04.735Z,7.50
2023-04-02T00:36:35.065Z,7.50
2023-04-02T00:39:08.621Z,7.50
2023-04-02T00:41:38.894Z,7.40
2023-04-02T00:44:13.629Z,7.50
2023-04-02T00:46:46.820Z,7.40
2023-04-02T00:49:23.302Z,7.40
2023-04-02T00:51:55.701Z,7.40
2023-04-02T00:54:26.626Z,7.40
2023-04-02T00:56:58.462Z,7.40
2023-04-02T00:59:31.217Z,7.30
2023-04-02T01:02:02.708Z,7.30
2023-04-02T01:04:34.504Z,7.30
2023-04-02T01:07:06.500Z,7.30
2023-04-02T01:09:52.375Z,7.30
2023-04-02T01:12:39.123Z,7.20
2023-04-02T01:15:14.980Z,7.20
2023-04-02T01:17:58.371Z,7.20
2023-04-02T01:20:52.677Z,7.20
2023-04-02T01:23:25.869Z,7.20
2023-04-02T01:26:00.319Z,7.10
2023-04-02T01:28:33.859Z,7.10
2023-04-02T01:31:04.710Z,7.10
2023-04-02T01:33:35.823Z,7.10
2023-04-02T01:36:12.659Z,7.10
2023-04-02T01:38:46.959Z,7.10
2023-04-02T01:41:22.038Z,7.00
2023-04-02T01:43:56.871Z,7.00
2023-04-02T01:46:27.658Z,7.00
2023-04-02T01:48:56.584Z,7.00
2023-04-02T01:51:29.170Z,7.00
2023-04-02T01:54:00.062Z,7.00
2023-04-02T01:56:28.603Z,6.90
2023-04-02T01:58:58.060Z,6.90
2023-04-02T02:01:31.976Z,6.90
2023-04-02T02:04:02.252Z,6.90
2023-04-02T02:06:31.335Z,6.90
2023-04-02T02:09:04.485Z,6.90
2023-04-02T02:11:34.065Z,6.90
2023-04-02T02:14:04.092Z,6.90
2023-04-02T02:16:42.220Z,6.80
2023-04-02T02:19:21.671Z,6.80
2023-04-02T02:21:52.767Z,6.80
2023-04-02T02:24:24.061Z,6.80
2023-04-02T02:27:05.626Z,6.80
2023-04-02T02:29:38.448Z,6.70
2023-04-02T02:32:10.662Z,6.70
2023-04-02T02:34:42.644Z,6.70
2023-04-02T02:37:16.018Z,6.70
2023-04-02T02:39:46.202Z,6.70
2023-04-02T02:42:19.735Z,6.70
2023-04-02T02:44:50.375Z,6.60
2023-04-02T02:47:30.051Z,6.60
2023-04-02T02:50:01.243Z,6.60
2023-04-02T02:52:34.092Z,6.60
2023-04-02T02:55:06.258Z,6.60
2023-04-02T02:57:39.072Z,6.60
2023-04-02T03:00:09.959Z,6.60
2023-04-02T03:02:42.441Z,6.60
2023-04-02T03:05:17.099Z,6.50
2023-04-02T03:07:45.386Z,6.50
2023-04-02T03:10:18.760Z,6.50
2023-04-02T03:12:52.627Z,6.50
2023-04-02T03:15:28.416Z,6.50
2023-04-02T03:18:02.924Z,6.50
2023-04-02T03:20:38.045Z,6.40
2023-04-02T03:23:13.904Z,6.40
2023-04-02T03:25:44.937Z,6.40
2023-04-02T03:28:17.904Z,6.40
2023-04-02T03:30:49.806Z,6.40
2023-04-02T03:33:24.864Z,6.30
2023-04-02T03:35:59.030Z,6.40
2023-04-02T03:38:29.608Z,6.40
2023-04-02T03:41:04.538Z,6.30
2023-04-02T03:43:37.762Z,6.30
2023-04-02T03:46:17.205Z,6.30
2023-04-02T03:48:49.600Z,6.30
2023-04-02T03:51:22.581Z,6.30
2023-04-02T03:53:51.450Z,6.30
2023-04-02T03:56:28.571Z,6.20
2023-04-02T03:59:05.197Z,6.20
2023-04-02T04:01:37.233Z,6.20
2023-04-02T04:04:11.292Z,6.20
2023-04-02T04:06:43.768Z,6.20
2023-04-02T04:09:16.926Z,6.20
2023-04-02T04:11:47.501Z,6.20
2023-04-02T04:14:20.241Z,6.20
2023-04-02T04:16:54.477Z,6.10
2023-04-02T04:19:32.636Z,6.10
2023-04-02T04:22:11.560Z,6.20
2023-04-02T04:24:39.838Z,6.10
2023-04-02T04:27:13.799Z,6.10
2023-04-02T04:29:51.498Z,6.10
2023-04-02T04:32:27.467Z,6.10
2023-04-02T04:35:01.106Z,6.00
2023-04-02T04:37:35.124Z,6.10
2023-04-02T04:40:13.375Z,6.00
2023-04-02T04:42:44.039Z,6.00
2023-04-02T04:45:27.179Z,6.00
2023-04-02T04:47:58.755Z,6.00
2023-04-02T04:50:33.097Z,6.00
2023-04-02T04:53:07.178Z,6.00
2023-04-02T04:55:40.615Z,6.00
2023-04-02T04:58:19.069Z,5.90
2023-04-02T05:00:56.344Z,5.90
2023-04-02T05:03:33.304Z,5.90
2023-04-02T05:06:10.545Z,5.90
2023-04-02T05:08:43.725Z,5.90
2023-04-02T05:11:15.831Z,5.90
2023-04-02T05:13:50.725Z,5.90
2023-04-02T05:16:24.752Z,5.90
2023-04-02T05:19:00.231Z,5.90
2023-04-02T05:21:38.336Z,5.90
2023-04-02T05:24:29.496Z,5.80
2023-04-02T05:27:01.194Z,5.90
2023-04-02T05:29:35.567Z,5.80
2023-04-02T05:32:09.303Z,5.80
2023-04-02T05:34:41.343Z,5.80
2023-04-02T05:37:17.841Z,5.80
2023-04-02T05:39:47.059Z,5.80
2023-04-02T05:42:21.679Z,5.80
2023-04-02T05:45:02.670Z,5.80
2023-04-02T05:47:33.109Z,5.80
2023-04-02T05:50:18.243Z,5.80
2023-04-02T05:52:52.091Z,5.80
2023-04-02T05:55:33.597Z,5.70
2023-04-02T05:58:31.881Z,5.70
2023-04-02T06:01:03.837Z,5.70
2023-04-02T06:03:40.532Z,5.70
2023-04-02T06:06:15.446Z,5.70
2023-04-02T06:08:50.834Z,5.70
2023-04-02T06:11:22.918Z,5.70
2023-04-02T06:13:50.986Z,5.70
2023-04-02T06:16:19.416Z,5.70
2023-04-02T06:18:47.352Z,5.70
2023-04-02T06:21:18.427Z,5.70
2023-04-02T06:23:53.395Z,5.60
2023-04-02T06:26:26.172Z,5.70
2023-04-02T06:29:02.259Z,5.70
2023-04-02T06:31:37.316Z,5.60
2023-04-02T06:34:06.906Z,5.70
2023-04-02T06:36:35.262Z,5.70
2023-04-02T06:39:09.136Z,5.70
2023-04-02T06:41:36.895Z,5.70
2023-04-02T06:44:10.223Z,5.70
2023-04-02T06:46:43.674Z,5.60
2023-04-02T06:49:19.971Z,5.60
2023-04-02T06:51:51.700Z,5.60
2023-04-02T06:54:21.847Z,5.60
2023-04-02T06:56:51.964Z,5.60
2023-04-02T06:59:21.057Z,5.60
2023-04-02T07:01:53.191Z,5.60
2023-04-02T07:04:21.718Z,5.60
2023-04-02T07:06:49.637Z,5.60
2023-04-02T07:09:18.289Z,5.60
2023-04-02T07:11:47.453Z,5.60
2023-04-02T07:14:15.957Z,5.60
2023-04-02T07:16:45.141Z,5.60
2023-04-02T07:19:19.041Z,5.60
2023-04-02T07:21:47.390Z,5.60
2023-04-02T07:24:15.461Z,5.60
2023-04-02T07:26:43.669Z,5.60
2023-04-02T07:29:16.749Z,5.60
2023-04-02T07:31:45.193Z,5.60
2023-04-02T07:34:13.290Z,5.60
2023-04-02T07:36:41.751Z,5.60
2023-04-02T07:39:09.993Z,5.60
2023-04-02T07:41:52.374Z,5.60
2023-04-02T07:44:21.624Z,5.60
2023-04-02T07:46:49.572Z,5.60
2023-04-02T07:49:17.565Z,5.60
2023-04-02T07:51:45.569Z,5.60
2023-04-02T07:54:13.338Z,5.60
2023-04-02T07:56:41.201Z,5.60
2023-04-02T07:59:09.045Z,5.70
2023-04-02T08:01:38.192Z,5.60
2023-04-02T08:04:07.732Z,5.70
2023-04-02T08:06:35.641Z,5.60
2023-04-02T08:09:03.480Z,5.60
2023-04-02T08:11:31.984Z,5.60
2023-04-02T08:13:59.856Z,5.60
2023-04-02T08:16:27.847Z,5.70
2023-04-02T08:18:57.195Z,5.70
2023-04-02T08:21:25.327Z,5.70
2023-04-02T08:23:53.130Z,5.60
2023-04-02T08:26:21.901Z,5.70
2023-04-02T08:28:49.730Z,5.60
2023-04-02T08:31:17.965Z,5.70
2023-04-02T08:33:46.070Z,5.60
2023-04-02T08:36:32.171Z,5.60
2023-04-02T08:39:02.573Z,5.60
2023-04-02T08:41:37.769Z,5.60
2023-04-02T08:47:42.745Z,5.70
2023-04-02T08:50:29.098Z,5.70
2023-04-02T08:53:00.984Z,5.70
2023-04-02T08:55:38.759Z,5.70
2023-04-02T08:58:18.826Z,5.70
2023-04-02T09:00:51.208Z,5.70
2023-04-02T09:07:44.762Z,5.70
2023-04-02T09:11:12.006Z,5.70
2023-04-02T09:13:51.447Z,5.70
2023-04-02T09:16:26.479Z,5.70
2023-04-02T09:19:22.734Z,5.70
2023-04-02T09:22:06.441Z,5.70
2023-04-02T09:24:37.628Z,5.70
2023-04-02T09:27:19.119Z,5.70
2023-04-02T09:29:54.467Z,5.70
2023-04-02T09:32:41.280Z,5.70
2023-04-02T09:35:32.849Z,5.70
2023-04-02T09:38:19.862Z,5.70
2023-04-02T09:40:52.346Z,5.70
2023-04-02T09:43:23.732Z,5.70
2023-04-02T09:46:00.779Z,5.70
2023-04-02T09:48:31.486Z,5.70
2023-04-02T09:51:08.198Z,5.70
2023-04-02T09:53:40.521Z,5.70
2023-04-02T09:56:17.060Z,5.70
2023-04-02T09:58:49.857Z,5.80
2023-04-02T10:01:40.032Z,5.70
2023-04-02T10:04:46.305Z,5.70
2023-04-02T10:07:38.916Z,5.70
2023-04-02T10:10:21.008Z,5.70
2023-04-02T10:13:10.184Z,5.70
2023-04-02T10:15:57.592Z,5.80
2023-04-02T10:18:40.726Z,5.80
2023-04-02T10:21:13.522Z,5.80
2023-04-02T10:23:44.138Z,5.80
2023-04-02T10:26:45.245Z,5.80
2023-04-02T10:29:44.451Z,5.80
2023-04-02T10:32:21.704Z,5.80
2023-04-02T10:34:57.436Z,5.80
2023-04-02T10:38:08.436Z,5.80
2023-04-02T10:40:37.751Z,5.80
2023-04-02T10:43:44.288Z,5.80
2023-04-02T10:46:26.976Z,5.80
2023-04-02T10:49:06.879Z,5.80
2023-04-02T10:51:46.235Z,5.90
2023-04-02T10:54:37.897Z,5.90
2023-04-02T10:57:15.905Z,5.90
2023-04-02T10:59:54.183Z,5.90
2023-04-02T11:05:31.474Z,5.90
2023-04-02T11:08:11.574Z,5.90
2023-04-02T11:10:44.533Z,5.90
2023-04-02T11:13:30.335Z,6.00
2023-04-02T11:16:00.771Z,6.00
2023-04-02T11:18:34.099Z,6.00
2023-04-02T11:21:06.589Z,6.00
2023-04-02T11:23:56.401Z,6.00
2023-04-02T11:26:44.594Z,6.00
2023-04-02T11:29:22.728Z,6.00
2023-04-02T11:31:53.196Z,6.00
2023-04-02T11:35:07.209Z,6.00
2023-04-02T11:37:51.204Z,6.10
2023-04-02T11:41:00.845Z,6.10
2023-04-02T11:44:11.515Z,6.10
2023-04-02T11:46:47.849Z,6.10
2023-04-02T11:50:05.900Z,6.10
2023-04-02T11:53:06.753Z,6.10
2023-04-02T11:55:42.595Z,6.20
2023-04-02T11:59:03.182Z,6.20
2023-04-02T12:02:13.596Z,6.20
2023-04-02T12:05:22.369Z,6.20
2023-04-02T12:13:26.881Z,6.30
2023-04-02T12:14:54.897Z,6.30
2023-04-02T12:17:44.878Z,6.30
2023-04-02T12:20:56.568Z,6.30
2023-04-02T12:24:02.367Z,6.40
2023-04-02T12:27:16.796Z,6.40
2023-04-02T12:29:56.549Z,6.40
2023-04-02T12:32:54.803Z,6.50
2023-04-02T12:35:51.020Z,6.40
2023-04-02T12:38:33.587Z,6.50
2023-04-02T12:42:05.814Z,6.50
2023-04-02T12:44:28.106Z,6.50
2023-04-02T12:51:01.019Z,6.50
2023-04-02T12:54:01.591Z,6.60
2023-04-02T12:56:35.899Z,6.60
2023-04-02T12:59:28.387Z,6.60
2023-04-02T13:01:59.075Z,6.60
2023-04-02T13:04:27.270Z,6.60
2023-04-02T13:07:04.195Z,6.60
2023-04-02T13:09:46.063Z,6.60
2023-04-02T13:12:27.598Z,6.70
2023-04-02T13:15:08.314Z,6.70
2023-04-02T13:18:20.314Z,6.70
2023-04-02T13:21:34.538Z,6.70
2023-04-02T13:24:18.994Z,6.70
2023-04-02T13:27:19.526Z,6.70
2023-04-02T13:30:41.084Z,6.70
2023-04-02T13:33:57.360Z,6.80
2023-04-02T13:37:13.560Z,6.80
2023-04-02T13:40:20.669Z,6.80
2023-04-02T13:42:59.598Z,6.80
2023-04-02T13:45:35.451Z,6.80
2023-04-02T13:48:27.325Z,6.90
2023-04-02T13:51:00.744Z,6.90
2023-04-02T13:53:34.279Z,6.90
2023-04-02T13:56:03.011Z,6.90
2023-04-02T13:58:31.391Z,6.90
2023-04-02T14:01:02.948Z,6.90
2023-04-02T14:03:34.635Z,6.90
2023-04-02T14:06:19.737Z,6.90
2023-04-02T14:09:17.971Z,6.90
2023-04-02T14:12:03.139Z,7.00
2023-04-02T14:14:55.723Z,7.00
2023-04-02T14:17:49.958Z,7.00
2023-04-02T14:20:43.040Z,7.00
2023-04-02T14:23:47.854Z,7.00
2023-04-02T14:26:26.362Z,7.10
2023-04-02T14:29:10.130Z,7.10
2023-04-02T14:31:44.830Z,7.10
2023-04-02T14:34:26.503Z,7.10
2023-04-02T14:37:06.192Z,7.10
2023-04-02T14:40:06.292Z,7.10
2023-04-02T14:42:53.638Z,7.10
2023-04-02T14:45:36.325Z,7.10
2023-04-02T14:48:40.249Z,7.20
2023-04-02T14:51:27.214Z,7.10
2023-04-02T14:54:05.037Z,7.20
2023-04-02T14:56:47.750Z,7.20
2023-04-02T14:59:40.427Z,7.20
2023-04-02T15:02:32.053Z,7.20
2023-04-02T15:05:15.662Z,7.20
2023-04-02T15:08:01.860Z,7.20
2023-04-02T15:10:34.358Z,7.20
2023-04-02T15:13:19.954Z,7.20
2023-04-02T15:15:56.918Z,7.20
2023-04-02T15:18:25.812Z,7.20
2023-04-02T15:21:18.513Z,7.30
2023-04-02T15:24:04.892Z,7.30
2023-04-02T15:26:52.852Z,7.30
2023-04-02T15:29:29.335Z,7.30
2023-04-02T15:32:13.509Z,7.30
2023-04-02T15:34:50.385Z,7.30
2023-04-02T15:37:41.579Z,7.30
2023-04-02T15:40:27.355Z,7.30
2023-04-02T15:42:59.894Z,7.30
2023-04-02T15:45:34.157Z,7.30
2023-04-02T15:48:29.104Z,7.30
2023-04-02T15:51:09.649Z,7.30
2023-04-02T15:53:50.274Z,7.30
2023-04-02T15:56:26.299Z,7.30
2023-04-02T15:59:10.028Z,7.30
2023-04-02T16:01:45.796Z,7.30
2023-04-02T16:04:24.524Z,7.30
2023-04-02T16:07:05.988Z,7.30
2023-04-02T16:09:43.041Z,7.30
2023-04-02T16:12:16.365Z,7.30
2023-04-02T16:14:46.678Z,7.30
2023-04-02T16:17:24.830Z,7.30
2023-04-02T16:19:57.964Z,7.30
2023-04-02T16:22:29.519Z,7.30
2023-04-02T16:25:02.169Z,7.30
2023-04-02T16:27:36.848Z,7.30
2023-04-02T16:30:29.909Z,7.30
2023-04-02T16:33:11.180Z,7.30
2023-04-02T16:35:46.436Z,7.30
2023-04-02T16:38:31.372Z,7.30
2023-04-02T16:41:08.898Z,7.30
2023-04-02T16:43:50.466Z,7.30
2023-04-02T16:46:38.196Z,7.30
2023-04-02T16:49:21.104Z,7.30
2023-04-02T16:52:01.510Z,7.30
2023-04-02T16:54:35.381Z,7.30
2023-04-02T16:57:21.308Z,7.30
2023-04-02T17:00:02.031Z,7.30
2023-04-02T17:02:44.401Z,7.30
2023-04-02T17:05:21.620Z,7.30
2023-04-02T17:08:01.525Z,7.30
2023-04-02T17:10:32.383Z,7.30
2023-04-02T17:13:19.546Z,7.30
2023-04-02T17:15:54.952Z,7.30
2023-04-02T17:18:24.612Z,7.30
2023-04-02T17:20:52.951Z,7.20
2023-04-02T17:23:21.483Z,7.20
2023-04-02T17:25:54.119Z,7.20
2023-04-02T17:28:28.856Z,7.20
2023-04-02T17:31:01.044Z,7.20
2023-04-02T17:33:28.987Z,7.20
2023-04-02T17:36:13.216Z,7.20
2023-04-02T17:38:48.226Z,7.20
2023-04-02T17:41:24.193Z,7.20
2023-04-02T17:44:02.516Z,7.20
2023-04-02T17:46:38.498Z,7.20
2023-04-02T17:49:15.182Z,7.20
2023-04-02T17:51:47.440Z,7.10
2023-04-02T17:54:27.681Z,7.10
2023-04-02T17:57:08.658Z,7.10
2023-04-02T17:59:50.565Z,7.10
2023-04-02T18:02:33.673Z,7.10
2023-04-02T18:05:09.312Z,7.10
2023-04-02T18:07:44.143Z,7.10
2023-04-02T18:10:23.182Z,7.10
2023-04-02T18:17:38.876Z,7.00
2023-04-02T19:48:49.922Z,6.40
2023-04-02T19:51:44.496Z,6.40
2023-04-02T19:54:39.873Z,6.40
2023-04-02T19:58:04.122Z,6.40
2023-04-02T20:00:51.781Z,6.30
2023-04-02T20:03:32.724Z,6.30
2023-04-02T20:06:07.690Z,6.30
2023-04-02T20:09:23.548Z,6.20
2023-04-02T20:12:03.527Z,6.30
2023-04-02T20:17:23.347Z,6.20
2023-04-02T20:20:03.642Z,6.20
2023-04-02T20:22:34.662Z,6.20
2023-04-02T20:25:15.765Z,6.20
2023-04-02T20:27:47.042Z,6.20
2023-04-02T20:30:15.472Z,6.10
2023-04-02T20:32:43.707Z,6.10
2023-04-02T20:35:13.799Z,6.10
2023-04-02T20:37:42.074Z,6.10
2023-04-02T20:40:12.060Z,6.10
2023-04-02T20:42:46.604Z,6.10
2023-04-02T20:45:14.791Z,6.00
2023-04-02T20:47:45.201Z,6.00
2023-04-02T20:50:16.506Z,6.00
2023-04-02T20:52:44.704Z,6.00
2023-04-02T20:55:20.263Z,6.00
2023-04-02T20:57:48.585Z,6.00
2023-04-02T21:00:22.372Z,6.00
2023-04-02T21:02:51.807Z,6.00
2023-04-02T21:05:21.756Z,6.00
2023-04-02T21:07:49.989Z,6.00
2023-04-02T21:10:22.152Z,5.90
2023-04-02T21:13:58.722Z,5.90
2023-04-02T21:16:31.900Z,5.90
2023-04-02T21:19:24.498Z,5.90
2023-04-02T21:22:01.928Z,5.90
2023-04-02T21:24:36.031Z,5.80
2023-04-02T21:27:08.251Z,5.80
2023-04-02T21:29:36.202Z,5.80
2023-04-02T21:32:17.899Z,5.80
2023-04-02T21:34:57.214Z,5.80
2023-04-02T21:37:30.003Z,5.80
2023-04-02T21:40:22.372Z,5.70
2023-04-02T21:42:58.712Z,5.70
2023-04-02T21:46:11.907Z,5.70
2023-04-02T21:48:37.426Z,5.70
2023-04-02T21:51:11.088Z,5.70
2023-04-02T21:53:55.968Z,5.70
2023-04-02T21:56:34.874Z,5.60
2023-04-02T21:59:08.736Z,5.60
2023-04-02T22:01:38.675Z,5.60
2023-04-02T22:04:12.798Z,5.60
2023-04-02T22:06:45.097Z,5.60
2023-04-02T22:09:22.297Z,5.50
2023-04-02T22:11:58.913Z,5.50
2023-04-02T22:14:45.780Z,5.50
2023-04-02T22:17:19.129Z,5.50
2023-04-02T22:20:07.195Z,5.50
2023-04-02T22:22:38.161Z,5.50
2023-04-02T22:25:07.380Z,5.40
2023-04-02T22:27:40.244Z,5.40
2023-04-02T22:30:11.280Z,5.40
2023-04-02T22:32:47.303Z,5.40
2023-04-02T22:35:17.129Z,5.30
2023-04-02T22:37:46.474Z,5.30
2023-04-02T22:40:17.553Z,5.30
2023-04-02T22:42:46.805Z,5.30
2023-04-02T22:45:26.127Z,5.30
2023-04-02T22:48:00.120Z,5.20
2023-04-02T22:50:28.242Z,5.20
2023-04-02T22:52:57.781Z,5.20
2023-04-02T22:55:26.670Z,5.20
2023-04-02T22:57:56.627Z,5.20
2023-04-02T23:00:29.174Z,5.10
2023-04-02T23:03:00.279Z,5.10
2023-04-02T23:08:19.275Z,5.10
2023-04-02T23:10:47.416Z,5.10
2023-04-02T23:13:17.196Z,5.00
2023-04-02T23:15:56.995Z,5.00
2023-04-02T23:18:45.410Z,5.00
2023-04-02T23:21:17.073Z,4.90
2023-04-02T23:24:36.573Z,4.90
2023-04-02T23:27:04.714Z,4.90
2023-04-02T23:29:39.109Z,4.90
2023-04-02T23:32:11.172Z,4.90
2023-04-02T23:34:49.421Z,4.90
2023-04-02T23:37:21.795Z,4.80
2023-04-02T23:39:49.704Z,4.80
2023-04-02T23:42:19.904Z,4.80
2023-04-02T23:44:47.890Z,4.80
2023-04-02T23:47:20.129Z,4.80
2023-04-02T23:49:48.488Z,4.70
2023-04-02T23:52:18.832Z,4.70
2023-04-02T23:54:49.153Z,4.70
2023-04-02T23:57:17.373Z,4.70
2023-04-02T23:59:47.508Z,4.70
